createdAt,value
2023-05-10T00:07:57.468Z,101860.00
2023-05-10T00:13:00.585Z,101862.00
2023-05-10T00:18:03.601Z,101851.00
2023-05-10T00:23:07.611Z,101854.00
2023-05-10T00:28:10.123Z,101857.00
2023-05-10T00:33:13.830Z,101847.00
2023-05-10T00:38:19.311Z,101838.00
2023-05-10T00:43:21.846Z,101838.00
2023-05-10T00:48:24.881Z,101840.00
2023-05-10T00:53:29.679Z,101835.00
2023-05-10T00:58:32.238Z,101828.00
2023-05-10T01:03:35.149Z,101823.00
2023-05-10T01:08:39.889Z,101821.00
2023-05-10T01:13:46.374Z,101805.00
2023-05-10T01:18:49.938Z,101804.00
2023-05-10T01:24:32.713Z,101800.00
2023-05-10T01:30:17.300Z,101802.00
2023-05-10T01:35:32.062Z,101800.00
2023-05-10T01:40:46.368Z,101791.00
2023-05-10T01:46:01.906Z,101788.00
2023-05-10T01:51:07.745Z,101796.00
2023-05-10T01:56:12.319Z,101787.00
2023-05-10T02:01:16.355Z,101802.00
2023-05-10T02:06:25.018Z,101786.00
2023-05-10T02:11:30.413Z,101793.00
2023-05-10T02:16:34.105Z,101787.00
2023-05-10T02:21:41.050Z,101790.00
2023-05-10T02:26:46.230Z,101785.00
2023-05-10T02:31:53.664Z,101781.00
2023-05-10T02:36:58.823Z,101786.00
2023-05-10T02:42:03.237Z,101776.00
2023-05-10T02:47:06.021Z,101782.00
2023-05-10T02:52:10.951Z,101789.00
2023-05-10T02:57:18.371Z,101783.00
2023-05-10T03:02:22.108Z,101785.00
2023-05-10T03:07:26.366Z,101789.00
2023-05-10T03:12:41.594Z,101789.00
2023-05-10T03:17:53.115Z,101805.00
2023-05-10T03:23:08.539Z,101793.00
2023-05-10T03:28:12.525Z,101789.00
2023-05-10T03:33:15.526Z,101799.00
2023-05-10T03:38:22.877Z,101790.00
2023-05-10T03:43:28.627Z,101778.00
2023-05-10T03:48:32.796Z,101783.00
2023-05-10T03:53:37.124Z,101790.00
2023-05-10T03:58:39.980Z,101785.00
2023-05-10T04:03:45.687Z,101788.00
2023-05-10T04:08:53.208Z,101778.00
2023-05-10T04:13:55.958Z,101777.00
2023-05-10T04:18:58.749Z,101767.00
2023-05-10T04:24:03.286Z,101774.00
2023-05-10T04:29:06.125Z,101759.00
2023-05-10T04:34:09.000Z,101761.00
2023-05-10T04:39:13.210Z,101769.00
2023-05-10T04:44:15.952Z,101768.00
2023-05-10T04:49:18.448Z,101772.00
2023-05-10T04:54:22.736Z,101771.00
2023-05-10T04:59:25.635Z,101768.00
2023-05-10T05:04:28.522Z,101766.00
2023-05-10T05:09:32.752Z,101766.00
2023-05-10T05:14:36.371Z,101761.00
2023-05-10T05:19:39.349Z,101751.00
2023-05-10T05:24:43.627Z,101763.00
2023-05-10T05:29:53.232Z,101762.00
2023-05-10T05:34:57.247Z,101772.00
2023-05-10T05:40:15.768Z,101779.00
2023-05-10T05:45:30.412Z,101771.00
2023-05-10T05:50:38.062Z,101768.00
2023-05-10T05:56:08.481Z,101765.00
2023-05-10T06:01:18.616Z,101769.00
2023-05-10T06:06:22.391Z,101768.00
2023-05-10T06:12:46.234Z,101767.00
2023-05-10T06:18:53.532Z,101763.00
2023-05-10T06:24:05.170Z,101752.00
2023-05-10T06:29:24.916Z,101753.00
2023-05-10T06:34:40.471Z,101758.00
2023-05-10T06:39:57.477Z,101763.00
2023-05-10T06:45:04.715Z,101758.00
2023-05-10T06:50:22.677Z,101744.00
2023-05-10T06:55:54.274Z,101758.00
2023-05-10T07:01:14.119Z,101754.00
2023-05-10T07:06:33.852Z,101749.00
2023-05-10T07:11:53.470Z,101749.00
2023-05-10T07:17:27.502Z,101752.00
2023-05-10T07:22:35.131Z,101748.00
2023-05-10T07:27:44.901Z,101747.00
2023-05-10T07:32:59.829Z,101744.00
2023-05-10T07:38:43.236Z,101745.00
2023-05-10T07:44:34.488Z,101740.00
2023-05-10T07:50:40.906Z,101733.00
2023-05-10T07:56:12.905Z,101762.00
2023-05-10T08:01:23.175Z,101746.00
2023-05-10T08:06:40.013Z,101749.00
2023-05-10T08:11:44.506Z,101747.00
2023-05-10T08:16:50.405Z,101743.00
2023-05-10T08:22:06.894Z,101732.00
2023-05-10T08:27:13.634Z,101739.00
2023-05-10T08:32:21.093Z,101751.00
2023-05-10T08:37:45.087Z,101739.00
2023-05-10T08:43:16.317Z,101734.00
2023-05-10T08:48:32.465Z,101733.00
2023-05-10T08:53:50.655Z,101737.00
2023-05-10T08:59:03.095Z,101714.00
2023-05-10T09:04:21.926Z,101725.00
2023-05-10T09:09:30.403Z,101737.00
2023-05-10T09:14:40.038Z,101731.00
2023-05-10T09:19:58.642Z,101726.00
2023-05-10T09:25:17.718Z,101735.00
2023-05-10T09:30:38.268Z,101714.00
2023-05-10T09:35:46.764Z,101725.00
2023-05-10T09:41:03.705Z,101714.00
2023-05-10T09:46:24.660Z,101714.00
2023-05-10T09:51:32.316Z,101714.00
2023-05-10T09:56:45.969Z,101730.00
2023-05-10T10:02:02.044Z,101714.00
2023-05-10T10:07:07.102Z,101701.00
2023-05-10T10:12:13.298Z,101703.00
2023-05-10T10:17:17.745Z,101683.00
2023-05-10T10:22:21.440Z,101685.00
2023-05-10T10:27:44.964Z,101682.00
2023-05-10T10:33:34.908Z,101689.00
2023-05-10T10:39:15.161Z,101672.00
2023-05-10T10:44:38.570Z,101677.00
2023-05-10T10:50:08.834Z,101654.00
2023-05-10T10:55:19.338Z,101669.00
2023-05-10T11:00:32.367Z,101664.00
2023-05-10T11:05:44.401Z,101654.00
2023-05-10T11:11:06.875Z,101672.00
2023-05-10T11:16:30.207Z,101642.00
2023-05-10T11:21:51.249Z,101667.00
2023-05-10T11:27:11.234Z,101662.00
2023-05-10T11:32:20.796Z,101650.00
2023-05-10T11:37:31.872Z,101642.00
2023-05-10T11:42:39.382Z,101655.00
2023-05-10T11:47:53.307Z,101635.00
2023-05-10T11:53:06.653Z,101654.00
2023-05-10T11:58:19.832Z,101635.00
2023-05-10T12:03:35.787Z,101652.00
2023-05-10T12:08:55.545Z,101645.00
2023-05-10T12:14:16.854Z,101644.00
2023-05-10T12:19:26.636Z,101639.00
2023-05-10T12:24:37.417Z,101627.00
2023-05-10T12:29:50.035Z,101640.00
2023-05-10T12:34:55.511Z,101621.00
2023-05-10T12:40:02.320Z,101630.00
2023-05-10T12:45:14.011Z,101624.00
2023-05-10T12:50:26.867Z,101626.00
2023-05-10T12:55:33.773Z,101634.00
2023-05-10T13:00:50.720Z,101626.00
2023-05-10T13:06:10.470Z,101625.00
2023-05-10T13:11:22.130Z,101612.00
2023-05-10T13:16:54.507Z,101603.00
2023-05-10T13:22:07.315Z,101597.00
2023-05-10T13:27:17.676Z,101596.00
2023-05-10T13:32:35.014Z,101603.00
2023-05-10T13:37:53.873Z,101599.00
2023-05-10T13:43:03.845Z,101592.00
2023-05-10T13:48:07.524Z,101596.00
2023-05-10T13:53:12.405Z,101608.00
2023-05-10T13:58:20.882Z,101586.00
2023-05-10T14:03:42.001Z,101583.00
2023-05-10T14:08:46.800Z,101591.00
2023-05-10T14:13:51.876Z,101573.00
2023-05-10T14:18:54.716Z,101580.00
2023-05-10T14:24:02.075Z,101574.00
2023-05-10T14:29:04.798Z,101572.00
2023-05-10T14:34:10.212Z,101582.00
2023-05-10T14:39:25.599Z,101580.00
2023-05-10T14:44:29.511Z,101582.00
2023-05-10T14:49:32.100Z,101577.00
2023-05-10T14:55:10.425Z,101562.00
2023-05-10T15:00:15.060Z,101573.00
2023-05-10T15:05:18.706Z,101561.00
2023-05-10T15:10:23.504Z,101567.00
2023-05-10T15:15:26.562Z,101566.00
2023-05-10T15:20:31.515Z,101563.00
2023-05-10T15:25:36.057Z,101571.00
2023-05-10T15:30:38.745Z,101571.00
2023-05-10T15:35:41.652Z,101564.00
2023-05-10T15:40:47.870Z,101560.00
2023-05-10T15:45:50.768Z,101568.00
2023-05-10T15:50:53.459Z,101569.00
2023-05-10T15:55:57.507Z,101571.00
2023-05-10T16:01:00.275Z,101557.00
2023-05-10T16:06:04.524Z,101566.00
2023-05-10T16:11:09.294Z,101562.00
2023-05-10T16:16:12.098Z,101556.00
2023-05-10T16:21:14.828Z,101565.00
2023-05-10T16:26:18.898Z,101572.00
2023-05-10T16:31:21.617Z,101580.00
2023-05-10T16:36:24.392Z,101576.00
2023-05-10T16:41:28.466Z,101571.00
2023-05-10T16:46:33.450Z,101588.00
2023-05-10T16:51:36.078Z,101579.00
2023-05-10T16:56:41.649Z,101584.00
2023-05-10T17:01:44.438Z,101589.00
2023-05-10T17:06:47.636Z,101587.00
2023-05-10T17:11:51.789Z,101597.00
2023-05-10T17:16:54.998Z,101601.00
2023-05-10T17:21:57.973Z,101613.00
2023-05-10T17:27:02.103Z,101599.00
2023-05-10T17:32:05.263Z,101598.00
2023-05-10T17:37:12.200Z,101612.00
2023-05-10T17:42:16.598Z,101608.00
2023-05-10T17:47:19.440Z,101608.00
2023-05-10T17:52:22.311Z,101626.00
2023-05-10T17:57:26.605Z,101631.00
2023-05-10T18:02:29.286Z,101624.00
2023-05-10T18:07:32.342Z,101634.00
2023-05-10T18:12:36.592Z,101630.00
2023-05-10T18:17:39.375Z,101633.00
2023-05-10T18:22:42.246Z,101635.00
2023-05-10T18:27:46.449Z,101639.00
2023-05-10T18:32:49.350Z,101650.00
2023-05-10T18:37:52.835Z,101650.00
2023-05-10T18:42:56.979Z,101655.00
2023-05-10T18:48:00.102Z,101666.00
2023-05-10T18:53:03.848Z,101670.00
2023-05-10T18:58:08.025Z,101670.00
2023-05-10T19:03:10.773Z,101680.00
2023-05-10T19:08:17.037Z,101679.00
2023-05-10T19:13:21.147Z,101682.00
2023-05-10T19:18:23.831Z,101682.00
2023-05-10T19:23:27.283Z,101681.00
2023-05-10T19:28:31.677Z,101682.00
2023-05-10T19:33:34.222Z,101684.00
2023-05-10T19:38:37.670Z,101687.00
2023-05-10T19:43:41.993Z,101686.00
2023-05-10T19:48:46.638Z,101691.00
2023-05-10T19:53:49.372Z,101698.00
2023-05-10T19:58:53.408Z,101704.00
2023-05-10T20:03:56.010Z,101701.00
2023-05-10T20:08:58.624Z,101709.00
2023-05-10T20:14:03.953Z,101715.00
2023-05-10T20:19:06.914Z,101715.00
2023-05-10T20:24:09.836Z,101714.00
2023-05-10T20:29:14.043Z,101716.00
2023-05-10T20:34:19.869Z,101705.00
2023-05-10T20:39:22.817Z,101708.00
2023-05-10T20:44:27.151Z,101714.00
2023-05-10T20:49:33.218Z,101709.00
2023-05-10T20:54:35.981Z,101710.00
2023-05-10T20:59:40.047Z,101719.00
2023-05-10T21:04:44.612Z,101727.00
2023-05-10T21:09:47.586Z,101721.00
2023-05-10T21:14:52.032Z,101727.00
2023-05-10T21:19:54.669Z,101730.00
2023-05-10T21:24:57.230Z,101735.00
2023-05-10T21:30:01.746Z,101739.00
2023-05-10T21:35:05.126Z,101737.00
2023-05-10T21:40:09.086Z,101748.00
2023-05-10T21:45:13.417Z,101738.00
2023-05-10T21:50:16.102Z,101732.00
2023-05-10T21:55:19.221Z,101743.00
2023-05-10T22:00:23.354Z,101744.00
2023-05-10T22:05:26.149Z,101748.00
2023-05-10T22:10:28.891Z,101749.00
2023-05-10T22:15:34.847Z,101748.00
2023-05-10T22:20:38.402Z,101754.00
2023-05-10T22:25:40.961Z,101750.00
2023-05-10T22:30:45.031Z,101761.00
2023-05-10T22:35:48.133Z,101766.00
2023-05-10T22:40:50.891Z,101764.00
2023-05-10T22:45:54.994Z,101759.00
2023-05-10T22:50:57.583Z,101768.00
2023-05-10T22:56:00.580Z,101771.00
2023-05-10T23:01:05.344Z,101780.00
2023-05-10T23:06:08.224Z,101773.00
2023-05-10T23:11:11.128Z,101776.00
2023-05-10T23:16:15.287Z,101785.00
2023-05-10T23:21:18.048Z,101779.00
2023-05-10T23:26:20.641Z,101791.00
2023-05-10T23:31:24.982Z,101780.00
2023-05-10T23:36:29.211Z,101780.00
2023-05-10T23:41:31.797Z,101783.00
2023-05-10T23:46:36.011Z,101788.00
2023-05-10T23:51:38.577Z,101787.00
2023-05-10T23:56:41.427Z,101782.00
